sensor_id;sensor_type;location;lat;lon;timestamp;P1;durP1;ratioP1;P2;durP2;ratioP2
76761;SDS011;65705;51.032;13.790;2023-04-28T00:01:48;10.90;;;5.95;;
76761;SDS011;65705;51.032;13.790;2023-04-28T00:04:13;13.25;;;6.13;;
76761;SDS011;65705;51.032;13.790;2023-04-28T00:06:39;8.68;;;5.40;;
76761;SDS011;65705;51.032;13.790;2023-04-28T00:09:05;11.73;;;6.32;;
76761;SDS011;65705;51.032;13.790;2023-04-28T00:11:38;10.68;;;5.45;;
76761;SDS011;65705;51.032;13.790;2023-04-28T00:14:04;12.88;;;6.22;;
76761;SDS011;65705;51.032;13.790;2023-04-28T00:16:30;10.27;;;5.55;;
76761;SDS011;65705;51.032;13.790;2023-04-28T00:18:56;11.45;;;5.45;;
76761;SDS011;65705;51.032;13.790;2023-04-28T00:21:21;11.90;;;6.30;;
76761;SDS011;65705;51.032;13.790;2023-04-28T00:23:47;10.05;;;6.05;;
76761;SDS011;65705;51.032;13.790;2023-04-28T00:26:13;10.68;;;6.22;;
76761;SDS011;65705;51.032;13.790;2023-04-28T00:28:41;14.50;;;6.32;;
76761;SDS011;65705;51.032;13.790;2023-04-28T00:31:10;12.50;;;6.47;;
76761;SDS011;65705;51.032;13.790;2023-04-28T00:33:38;10.77;;;5.97;;
76761;SDS011;65705;51.032;13.790;2023-04-28T00:36:04;11.75;;;5.78;;
76761;SDS011;65705;51.032;13.790;2023-04-28T00:38:30;11.85;;;5.72;;
76761;SDS011;65705;51.032;13.790;2023-04-28T00:40:56;12.23;;;5.40;;
76761;SDS011;65705;51.032;13.790;2023-04-28T00:43:22;14.18;;;5.25;;
76761;SDS011;65705;51.032;13.790;2023-04-28T00:45:48;10.48;;;5.22;;
76761;SDS011;65705;51.032;13.790;2023-04-28T00:48:15;10.50;;;5.20;;
76761;SDS011;65705;51.032;13.790;2023-04-28T00:50:41;12.93;;;5.28;;
76761;SDS011;65705;51.032;13.790;2023-04-28T00:53:09;12.88;;;5.18;;
76761;SDS011;65705;51.032;13.790;2023-04-28T00:55:35;9.45;;;5.10;;
76761;SDS011;65705;51.032;13.790;2023-04-28T00:58:02;9.63;;;4.95;;
76761;SDS011;65705;51.032;13.790;2023-04-28T01:00:29;11.88;;;5.60;;
76761;SDS011;65705;51.032;13.790;2023-04-28T01:02:56;11.50;;;5.00;;
76761;SDS011;65705;51.032;13.790;2023-04-28T01:05:27;9.23;;;5.32;;
76761;SDS011;65705;51.032;13.790;2023-04-28T01:07:53;10.15;;;5.53;;
76761;SDS011;65705;51.032;13.790;2023-04-28T01:10:20;10.85;;;5.05;;
76761;SDS011;65705;51.032;13.790;2023-04-28T01:12:46;12.10;;;5.28;;
76761;SDS011;65705;51.032;13.790;2023-04-28T01:15:15;10.20;;;4.50;;
76761;SDS011;65705;51.032;13.790;2023-04-28T01:17:43;8.00;;;5.45;;
76761;SDS011;65705;51.032;13.790;2023-04-28T01:20:10;9.93;;;5.50;;
76761;SDS011;65705;51.032;13.790;2023-04-28T01:22:36;10.27;;;5.55;;
76761;SDS011;65705;51.032;13.790;2023-04-28T01:25:05;13.68;;;5.15;;
76761;SDS011;65705;51.032;13.790;2023-04-28T01:27:31;10.43;;;5.00;;
76761;SDS011;65705;51.032;13.790;2023-04-28T01:29:57;9.00;;;5.78;;
76761;SDS011;65705;51.032;13.790;2023-04-28T01:32:23;10.93;;;5.57;;
76761;SDS011;65705;51.032;13.790;2023-04-28T01:34:49;9.93;;;5.00;;
76761;SDS011;65705;51.032;13.790;2023-04-28T01:37:14;11.80;;;5.35;;
76761;SDS011;65705;51.032;13.790;2023-04-28T01:39:40;8.35;;;5.03;;
76761;SDS011;65705;51.032;13.790;2023-04-28T01:42:06;11.70;;;5.10;;
76761;SDS011;65705;51.032;13.790;2023-04-28T01:44:32;10.98;;;4.97;;
76761;SDS011;65705;51.032;13.790;2023-04-28T01:46:58;12.52;;;5.03;;
76761;SDS011;65705;51.032;13.790;2023-04-28T01:49:24;9.02;;;5.50;;
76761;SDS011;65705;51.032;13.790;2023-04-28T01:51:50;9.90;;;4.90;;
76761;SDS011;65705;51.032;13.790;2023-04-28T01:54:15;10.60;;;5.30;;
76761;SDS011;65705;51.032;13.790;2023-04-28T01:56:41;11.43;;;5.40;;
76761;SDS011;65705;51.032;13.790;2023-04-28T01:59:08;10.60;;;5.18;;
76761;SDS011;65705;51.032;13.790;2023-04-28T02:01:33;11.90;;;5.35;;
76761;SDS011;65705;51.032;13.790;2023-04-28T02:03:59;12.35;;;5.32;;
76761;SDS011;65705;51.032;13.790;2023-04-28T02:06:25;12.40;;;5.13;;
76761;SDS011;65705;51.032;13.790;2023-04-28T02:08:52;8.50;;;5.18;;
76761;SDS011;65705;51.032;13.790;2023-04-28T02:11:17;11.40;;;5.43;;
76761;SDS011;65705;51.032;13.790;2023-04-28T02:13:44;10.10;;;5.35;;
76761;SDS011;65705;51.032;13.790;2023-04-28T02:16:10;13.85;;;5.85;;
76761;SDS011;65705;51.032;13.790;2023-04-28T02:18:35;12.30;;;5.68;;
76761;SDS011;65705;51.032;13.790;2023-04-28T02:21:08;9.20;;;5.10;;
76761;SDS011;65705;51.032;13.790;2023-04-28T02:23:35;10.23;;;5.20;;
76761;SDS011;65705;51.032;13.790;2023-04-28T02:26:03;11.52;;;5.78;;
76761;SDS011;65705;51.032;13.790;2023-04-28T02:28:30;14.50;;;5.78;;
76761;SDS011;65705;51.032;13.790;2023-04-28T02:31:05;9.80;;;5.10;;
76761;SDS011;65705;51.032;13.790;2023-04-28T02:33:34;10.95;;;5.35;;
76761;SDS011;65705;51.032;13.790;2023-04-28T02:36:01;11.40;;;5.13;;
76761;SDS011;65705;51.032;13.790;2023-04-28T02:38:28;10.85;;;5.88;;
76761;SDS011;65705;51.032;13.790;2023-04-28T02:40:57;10.60;;;5.20;;
76761;SDS011;65705;51.032;13.790;2023-04-28T02:43:24;8.55;;;4.97;;
76761;SDS011;65705;51.032;13.790;2023-04-28T02:45:50;9.20;;;5.10;;
76761;SDS011;65705;51.032;13.790;2023-04-28T02:48:16;9.88;;;5.47;;
76761;SDS011;65705;51.032;13.790;2023-04-28T02:50:42;10.23;;;5.15;;
76761;SDS011;65705;51.032;13.790;2023-04-28T02:53:10;8.88;;;5.15;;
76761;SDS011;65705;51.032;13.790;2023-04-28T02:55:37;10.77;;;5.32;;
76761;SDS011;65705;51.032;13.790;2023-04-28T02:58:03;8.23;;;5.03;;
76761;SDS011;65705;51.032;13.790;2023-04-28T03:00:28;8.43;;;5.18;;
76761;SDS011;65705;51.032;13.790;2023-04-28T03:02:54;8.65;;;5.32;;
76761;SDS011;65705;51.032;13.790;2023-04-28T03:05:20;9.98;;;5.13;;
76761;SDS011;65705;51.032;13.790;2023-04-28T03:07:46;8.27;;;4.80;;
76761;SDS011;65705;51.032;13.790;2023-04-28T03:10:12;8.27;;;4.95;;
76761;SDS011;65705;51.032;13.790;2023-04-28T03:12:38;13.60;;;5.43;;
76761;SDS011;65705;51.032;13.790;2023-04-28T03:15:04;9.13;;;4.78;;
76761;SDS011;65705;51.032;13.790;2023-04-28T03:17:34;11.23;;;5.55;;
76761;SDS011;65705;51.032;13.790;2023-04-28T03:20:06;13.45;;;5.68;;
76761;SDS011;65705;51.032;13.790;2023-04-28T03:22:33;13.43;;;5.43;;
76761;SDS011;65705;51.032;13.790;2023-04-28T03:25:00;9.80;;;5.40;;
76761;SDS011;65705;51.032;13.790;2023-04-28T03:27:28;9.55;;;5.10;;
76761;SDS011;65705;51.032;13.790;2023-04-28T03:29:55;11.18;;;6.10;;
76761;SDS011;65705;51.032;13.790;2023-04-28T03:32:21;13.77;;;6.00;;
76761;SDS011;65705;51.032;13.790;2023-04-28T03:34:47;14.85;;;5.47;;
76761;SDS011;65705;51.032;13.790;2023-04-28T03:37:13;15.50;;;5.53;;
76761;SDS011;65705;51.032;13.790;2023-04-28T03:39:39;10.73;;;5.53;;
76761;SDS011;65705;51.032;13.790;2023-04-28T03:42:05;12.95;;;5.00;;
76761;SDS011;65705;51.032;13.790;2023-04-28T03:44:53;9.73;;;5.07;;
76761;SDS011;65705;51.032;13.790;2023-04-28T03:47:19;9.40;;;5.25;;
76761;SDS011;65705;51.032;13.790;2023-04-28T03:49:45;9.27;;;5.30;;
76761;SDS011;65705;51.032;13.790;2023-04-28T03:52:11;13.48;;;5.43;;
76761;SDS011;65705;51.032;13.790;2023-04-28T03:54:37;12.65;;;5.85;;
76761;SDS011;65705;51.032;13.790;2023-04-28T03:57:03;12.60;;;5.90;;
76761;SDS011;65705;51.032;13.790;2023-04-28T03:59:31;17.05;;;6.00;;
76761;SDS011;65705;51.032;13.790;2023-04-28T04:01:57;15.80;;;6.07;;
76761;SDS011;65705;51.032;13.790;2023-04-28T04:04:23;14.43;;;5.72;;
76761;SDS011;65705;51.032;13.790;2023-04-28T04:06:49;11.77;;;5.57;;
76761;SDS011;65705;51.032;13.790;2023-04-28T04:09:15;12.55;;;5.40;;
76761;SDS011;65705;51.032;13.790;2023-04-28T04:11:41;15.73;;;5.53;;
76761;SDS011;65705;51.032;13.790;2023-04-28T04:14:06;14.57;;;5.57;;
76761;SDS011;65705;51.032;13.790;2023-04-28T04:16:32;19.02;;;6.05;;
76761;SDS011;65705;51.032;13.790;2023-04-28T04:18:58;11.15;;;5.13;;
76761;SDS011;65705;51.032;13.790;2023-04-28T04:21:40;9.40;;;5.20;;
76761;SDS011;65705;51.032;13.790;2023-04-28T04:24:06;14.18;;;5.72;;
76761;SDS011;65705;51.032;13.790;2023-04-28T04:26:32;12.95;;;5.20;;
76761;SDS011;65705;51.032;13.790;2023-04-28T04:28:58;13.18;;;5.57;;
76761;SDS011;65705;51.032;13.790;2023-04-28T04:31:24;14.00;;;6.82;;
76761;SDS011;65705;51.032;13.790;2023-04-28T04:33:50;14.55;;;5.90;;
76761;SDS011;65705;51.032;13.790;2023-04-28T04:36:18;11.13;;;5.50;;
76761;SDS011;65705;51.032;13.790;2023-04-28T04:38:44;12.32;;;5.78;;
76761;SDS011;65705;51.032;13.790;2023-04-28T04:41:16;18.30;;;5.70;;
76761;SDS011;65705;51.032;13.790;2023-04-28T04:43:45;10.77;;;5.70;;
76761;SDS011;65705;51.032;13.790;2023-04-28T04:46:11;12.80;;;5.00;;
76761;SDS011;65705;51.032;13.790;2023-04-28T04:48:37;11.93;;;5.45;;
76761;SDS011;65705;51.032;13.790;2023-04-28T04:51:03;22.00;;;5.65;;
76761;SDS011;65705;51.032;13.790;2023-04-28T04:53:30;13.43;;;5.93;;
76761;SDS011;65705;51.032;13.790;2023-04-28T04:55:56;12.93;;;5.65;;
76761;SDS011;65705;51.032;13.790;2023-04-28T04:58:22;15.32;;;5.85;;
76761;SDS011;65705;51.032;13.790;2023-04-28T05:01:11;11.23;;;5.13;;
76761;SDS011;65705;51.032;13.790;2023-04-28T05:03:37;16.55;;;5.13;;
76761;SDS011;65705;51.032;13.790;2023-04-28T05:06:02;10.65;;;5.53;;
76761;SDS011;65705;51.032;13.790;2023-04-28T05:08:42;14.88;;;5.55;;
76761;SDS011;65705;51.032;13.790;2023-04-28T05:11:08;16.83;;;6.20;;
76761;SDS011;65705;51.032;13.790;2023-04-28T05:13:34;11.85;;;5.15;;
76761;SDS011;65705;51.032;13.790;2023-04-28T05:16:01;10.20;;;4.85;;
76761;SDS011;65705;51.032;13.790;2023-04-28T05:18:56;10.52;;;5.28;;
76761;SDS011;65705;51.032;13.790;2023-04-28T05:21:22;14.55;;;4.88;;
76761;SDS011;65705;51.032;13.790;2023-04-28T05:23:48;14.52;;;5.10;;
76761;SDS011;65705;51.032;13.790;2023-04-28T05:26:14;10.55;;;4.50;;
76761;SDS011;65705;51.032;13.790;2023-04-28T05:28:41;11.93;;;4.90;;
76761;SDS011;65705;51.032;13.790;2023-04-28T05:31:07;14.40;;;5.40;;
76761;SDS011;65705;51.032;13.790;2023-04-28T05:33:33;9.77;;;5.10;;
76761;SDS011;65705;51.032;13.790;2023-04-28T05:35:59;14.23;;;5.38;;
76761;SDS011;65705;51.032;13.790;2023-04-28T05:38:24;11.00;;;4.68;;
76761;SDS011;65705;51.032;13.790;2023-04-28T05:40:54;16.35;;;4.80;;
76761;SDS011;65705;51.032;13.790;2023-04-28T05:43:20;12.43;;;4.55;;
76761;SDS011;65705;51.032;13.790;2023-04-28T05:45:47;8.98;;;4.68;;
76761;SDS011;65705;51.032;13.790;2023-04-28T05:48:13;20.33;;;5.47;;
76761;SDS011;65705;51.032;13.790;2023-04-28T05:50:39;10.43;;;4.57;;
76761;SDS011;65705;51.032;13.790;2023-04-28T05:53:05;13.23;;;4.80;;
76761;SDS011;65705;51.032;13.790;2023-04-28T05:55:32;13.77;;;4.75;;
76761;SDS011;65705;51.032;13.790;2023-04-28T05:58:03;12.30;;;4.65;;
76761;SDS011;65705;51.032;13.790;2023-04-28T06:00:29;8.63;;;4.47;;
76761;SDS011;65705;51.032;13.790;2023-04-28T06:02:58;11.45;;;4.50;;
76761;SDS011;65705;51.032;13.790;2023-04-28T06:05:24;17.80;;;5.15;;
76761;SDS011;65705;51.032;13.790;2023-04-28T06:07:53;10.45;;;4.97;;
76761;SDS011;65705;51.032;13.790;2023-04-28T06:10:20;14.57;;;5.32;;
76761;SDS011;65705;51.032;13.790;2023-04-28T06:12:47;13.55;;;5.10;;
76761;SDS011;65705;51.032;13.790;2023-04-28T06:15:14;11.30;;;5.20;;
76761;SDS011;65705;51.032;13.790;2023-04-28T06:17:40;13.13;;;4.63;;
76761;SDS011;65705;51.032;13.790;2023-04-28T06:20:06;9.95;;;4.00;;
76761;SDS011;65705;51.032;13.790;2023-04-28T06:22:36;14.70;;;4.15;;
76761;SDS011;65705;51.032;13.790;2023-04-28T06:25:01;9.00;;;4.03;;
76761;SDS011;65705;51.032;13.790;2023-04-28T06:27:33;7.90;;;4.25;;
76761;SDS011;65705;51.032;13.790;2023-04-28T06:29:59;11.73;;;4.22;;
76761;SDS011;65705;51.032;13.790;2023-04-28T06:32:24;9.77;;;4.07;;
76761;SDS011;65705;51.032;13.790;2023-04-28T06:34:50;18.50;;;4.50;;
76761;SDS011;65705;51.032;13.790;2023-04-28T06:37:16;13.75;;;4.50;;
76761;SDS011;65705;51.032;13.790;2023-04-28T06:39:43;13.77;;;4.45;;
76761;SDS011;65705;51.032;13.790;2023-04-28T06:42:08;9.25;;;4.00;;
76761;SDS011;65705;51.032;13.790;2023-04-28T06:44:40;12.05;;;4.22;;
76761;SDS011;65705;51.032;13.790;2023-04-28T06:47:06;11.57;;;4.28;;
76761;SDS011;65705;51.032;13.790;2023-04-28T06:49:31;9.38;;;4.07;;
76761;SDS011;65705;51.032;13.790;2023-04-28T06:51:59;12.95;;;4.30;;
76761;SDS011;65705;51.032;13.790;2023-04-28T06:54:28;16.17;;;4.45;;
76761;SDS011;65705;51.032;13.790;2023-04-28T06:56:54;8.60;;;4.15;;
76761;SDS011;65705;51.032;13.790;2023-04-28T06:59:23;10.35;;;4.38;;
76761;SDS011;65705;51.032;13.790;2023-04-28T07:01:48;8.02;;;3.75;;
76761;SDS011;65705;51.032;13.790;2023-04-28T07:04:14;14.20;;;4.65;;
76761;SDS011;65705;51.032;13.790;2023-04-28T07:06:40;12.20;;;4.00;;
76761;SDS011;65705;51.032;13.790;2023-04-28T07:09:06;11.52;;;4.05;;
76761;SDS011;65705;51.032;13.790;2023-04-28T07:11:31;8.95;;;3.97;;
76761;SDS011;65705;51.032;13.790;2023-04-28T07:13:57;11.10;;;4.05;;
76761;SDS011;65705;51.032;13.790;2023-04-28T07:16:24;14.27;;;4.65;;
76761;SDS011;65705;51.032;13.790;2023-04-28T07:18:50;10.68;;;4.40;;
76761;SDS011;65705;51.032;13.790;2023-04-28T07:21:15;16.85;;;4.78;;
76761;SDS011;65705;51.032;13.790;2023-04-28T07:23:42;13.73;;;4.75;;
76761;SDS011;65705;51.032;13.790;2023-04-28T07:26:08;11.18;;;5.00;;
76761;SDS011;65705;51.032;13.790;2023-04-28T07:28:33;10.60;;;5.15;;
76761;SDS011;65705;51.032;13.790;2023-04-28T07:31:00;6.97;;;3.20;;
76761;SDS011;65705;51.032;13.790;2023-04-28T07:33:26;12.60;;;3.65;;
76761;SDS011;65705;51.032;13.790;2023-04-28T07:35:52;9.15;;;4.03;;
76761;SDS011;65705;51.032;13.790;2023-04-28T07:38:21;8.95;;;3.85;;
76761;SDS011;65705;51.032;13.790;2023-04-28T07:40:47;8.45;;;3.70;;
76761;SDS011;65705;51.032;13.790;2023-04-28T07:43:14;12.00;;;3.92;;
76761;SDS011;65705;51.032;13.790;2023-04-28T07:45:39;8.85;;;3.75;;
76761;SDS011;65705;51.032;13.790;2023-04-28T07:48:06;10.13;;;3.75;;
76761;SDS011;65705;51.032;13.790;2023-04-28T07:50:32;9.93;;;3.38;;
76761;SDS011;65705;51.032;13.790;2023-04-28T07:52:58;8.98;;;3.70;;
76761;SDS011;65705;51.032;13.790;2023-04-28T07:55:24;8.05;;;3.83;;
76761;SDS011;65705;51.032;13.790;2023-04-28T07:57:50;11.68;;;4.07;;
76761;SDS011;65705;51.032;13.790;2023-04-28T08:00:16;22.70;;;4.03;;
76761;SDS011;65705;51.032;13.790;2023-04-28T08:02:43;14.80;;;3.90;;
76761;SDS011;65705;51.032;13.790;2023-04-28T08:05:09;9.75;;;3.80;;
76761;SDS011;65705;51.032;13.790;2023-04-28T08:07:35;10.80;;;3.78;;
76761;SDS011;65705;51.032;13.790;2023-04-28T08:10:03;11.60;;;3.72;;
76761;SDS011;65705;51.032;13.790;2023-04-28T08:12:29;12.30;;;4.40;;
76761;SDS011;65705;51.032;13.790;2023-04-28T08:14:57;9.77;;;4.53;;
76761;SDS011;65705;51.032;13.790;2023-04-28T08:17:23;15.52;;;5.72;;
76761;SDS011;65705;51.032;13.790;2023-04-28T08:19:49;9.32;;;3.75;;
76761;SDS011;65705;51.032;13.790;2023-04-28T08:22:14;7.40;;;3.38;;
76761;SDS011;65705;51.032;13.790;2023-04-28T08:24:40;10.45;;;3.58;;
76761;SDS011;65705;51.032;13.790;2023-04-28T08:27:06;12.50;;;3.30;;
76761;SDS011;65705;51.032;13.790;2023-04-28T08:29:32;10.60;;;3.95;;
76761;SDS011;65705;51.032;13.790;2023-04-28T08:31:59;8.00;;;3.30;;
76761;SDS011;65705;51.032;13.790;2023-04-28T08:34:27;9.90;;;3.50;;
76761;SDS011;65705;51.032;13.790;2023-04-28T08:36:53;11.15;;;3.65;;
76761;SDS011;65705;51.032;13.790;2023-04-28T08:39:19;7.38;;;3.08;;
76761;SDS011;65705;51.032;13.790;2023-04-28T08:41:47;8.85;;;3.40;;
76761;SDS011;65705;51.032;13.790;2023-04-28T08:44:12;9.65;;;3.20;;
76761;SDS011;65705;51.032;13.790;2023-04-28T08:46:42;8.07;;;3.08;;
76761;SDS011;65705;51.032;13.790;2023-04-28T08:49:13;9.38;;;2.95;;
76761;SDS011;65705;51.032;13.790;2023-04-28T08:51:49;8.98;;;2.85;;
76761;SDS011;65705;51.032;13.790;2023-04-28T08:54:21;12.20;;;3.28;;
76761;SDS011;65705;51.032;13.790;2023-04-28T08:59:17;8.32;;;3.13;;
76761;SDS011;65705;51.032;13.790;2023-04-28T09:01:43;9.48;;;3.55;;
76761;SDS011;65705;51.032;13.790;2023-04-28T09:04:12;11.20;;;3.38;;
76761;SDS011;65705;51.032;13.790;2023-04-28T09:06:41;8.88;;;3.30;;
76761;SDS011;65705;51.032;13.790;2023-04-28T09:11:58;9.80;;;4.00;;
76761;SDS011;65705;51.032;13.790;2023-04-28T09:14:25;9.82;;;3.55;;
76761;SDS011;65705;51.032;13.790;2023-04-28T09:16:52;7.68;;;3.13;;
76761;SDS011;65705;51.032;13.790;2023-04-28T09:19:18;9.38;;;2.78;;
76761;SDS011;65705;51.032;13.790;2023-04-28T09:21:54;7.47;;;2.90;;
76761;SDS011;65705;51.032;13.790;2023-04-28T09:24:31;8.48;;;2.85;;
76761;SDS011;65705;51.032;13.790;2023-04-28T09:26:58;11.75;;;3.22;;
76761;SDS011;65705;51.032;13.790;2023-04-28T09:29:27;10.73;;;3.55;;
76761;SDS011;65705;51.032;13.790;2023-04-28T09:31:53;9.82;;;3.90;;
76761;SDS011;65705;51.032;13.790;2023-04-28T09:34:19;14.77;;;4.45;;
76761;SDS011;65705;51.032;13.790;2023-04-28T09:36:49;9.80;;;2.90;;
76761;SDS011;65705;51.032;13.790;2023-04-28T09:39:26;9.15;;;2.50;;
76761;SDS011;65705;51.032;13.790;2023-04-28T09:41:54;9.85;;;2.00;;
76761;SDS011;65705;51.032;13.790;2023-04-28T09:44:20;5.68;;;2.10;;
76761;SDS011;65705;51.032;13.790;2023-04-28T09:46:46;12.45;;;2.70;;
76761;SDS011;65705;51.032;13.790;2023-04-28T09:49:12;10.20;;;2.15;;
76761;SDS011;65705;51.032;13.790;2023-04-28T09:51:39;13.85;;;2.88;;
76761;SDS011;65705;51.032;13.790;2023-04-28T09:54:05;7.25;;;2.35;;
76761;SDS011;65705;51.032;13.790;2023-04-28T09:56:33;6.13;;;2.42;;
76761;SDS011;65705;51.032;13.790;2023-04-28T09:59:02;9.13;;;2.38;;
76761;SDS011;65705;51.032;13.790;2023-04-28T10:01:36;9.13;;;2.50;;
76761;SDS011;65705;51.032;13.790;2023-04-28T10:04:04;8.25;;;2.45;;
76761;SDS011;65705;51.032;13.790;2023-04-28T10:06:32;7.38;;;2.45;;
76761;SDS011;65705;51.032;13.790;2023-04-28T10:09:00;10.88;;;2.40;;
76761;SDS011;65705;51.032;13.790;2023-04-28T10:11:27;6.80;;;2.00;;
76761;SDS011;65705;51.032;13.790;2023-04-28T10:13:54;7.53;;;2.35;;
76761;SDS011;65705;51.032;13.790;2023-04-28T10:16:21;9.88;;;2.80;;
76761;SDS011;65705;51.032;13.790;2023-04-28T10:18:48;6.22;;;2.30;;
76761;SDS011;65705;51.032;13.790;2023-04-28T10:21:16;9.25;;;2.75;;
76761;SDS011;65705;51.032;13.790;2023-04-28T10:26:20;6.63;;;2.30;;
76761;SDS011;65705;51.032;13.790;2023-04-28T10:29:00;7.55;;;2.63;;
76761;SDS011;65705;51.032;13.790;2023-04-28T10:31:26;6.50;;;2.30;;
76761;SDS011;65705;51.032;13.790;2023-04-28T10:33:52;8.25;;;2.58;;
76761;SDS011;65705;51.032;13.790;2023-04-28T10:39:14;7.13;;;2.38;;
76761;SDS011;65705;51.032;13.790;2023-04-28T10:41:41;7.65;;;2.28;;
76761;SDS011;65705;51.032;13.790;2023-04-28T10:47:04;17.20;;;3.17;;
76761;SDS011;65705;51.032;13.790;2023-04-28T10:52:48;5.93;;;2.85;;
76761;SDS011;65705;51.032;13.790;2023-04-28T11:00:47;7.60;;;3.10;;
76761;SDS011;65705;51.032;13.790;2023-04-28T11:06:22;10.40;;;3.92;;
76761;SDS011;65705;51.032;13.790;2023-04-28T11:08:59;8.27;;;3.78;;
76761;SDS011;65705;51.032;13.790;2023-04-28T11:11:37;9.93;;;4.07;;
76761;SDS011;65705;51.032;13.790;2023-04-28T11:19:34;11.90;;;5.38;;
76761;SDS011;65705;51.032;13.790;2023-04-28T11:22:01;7.03;;;4.03;;
76761;SDS011;65705;51.032;13.790;2023-04-28T11:24:29;7.63;;;4.38;;
76761;SDS011;65705;51.032;13.790;2023-04-28T11:26:56;11.68;;;5.20;;
76761;SDS011;65705;51.032;13.790;2023-04-28T11:29:29;7.78;;;4.55;;
76761;SDS011;65705;51.032;13.790;2023-04-28T11:32:00;10.13;;;3.90;;
76761;SDS011;65705;51.032;13.790;2023-04-28T11:34:29;8.35;;;4.40;;
76761;SDS011;65705;51.032;13.790;2023-04-28T11:36:55;10.90;;;5.18;;
76761;SDS011;65705;51.032;13.790;2023-04-28T11:39:28;11.75;;;4.70;;
76761;SDS011;65705;51.032;13.790;2023-04-28T11:42:16;10.20;;;4.40;;
76761;SDS011;65705;51.032;13.790;2023-04-28T11:44:41;15.65;;;6.60;;
76761;SDS011;65705;51.032;13.790;2023-04-28T11:47:14;32.25;;;18.88;;
76761;SDS011;65705;51.032;13.790;2023-04-28T11:49:41;30.30;;;17.80;;
76761;SDS011;65705;51.032;13.790;2023-04-28T11:52:09;13.13;;;5.50;;
76761;SDS011;65705;51.032;13.790;2023-04-28T11:54:35;10.15;;;4.32;;
76761;SDS011;65705;51.032;13.790;2023-04-28T11:57:02;9.73;;;4.45;;
76761;SDS011;65705;51.032;13.790;2023-04-28T12:01:59;10.25;;;4.68;;
76761;SDS011;65705;51.032;13.790;2023-04-28T12:04:30;13.25;;;4.85;;
76761;SDS011;65705;51.032;13.790;2023-04-28T12:07:01;14.82;;;5.28;;
76761;SDS011;65705;51.032;13.790;2023-04-28T12:09:30;10.10;;;5.30;;
76761;SDS011;65705;51.032;13.790;2023-04-28T12:11:57;12.73;;;5.65;;
76761;SDS011;65705;51.032;13.790;2023-04-28T12:14:26;15.73;;;4.32;;
76761;SDS011;65705;51.032;13.790;2023-04-28T12:16:52;9.55;;;3.92;;
76761;SDS011;65705;51.032;13.790;2023-04-28T12:19:18;8.63;;;3.50;;
76761;SDS011;65705;51.032;13.790;2023-04-28T12:21:57;11.60;;;3.83;;
76761;SDS011;65705;51.032;13.790;2023-04-28T12:24:30;8.95;;;3.70;;
76761;SDS011;65705;51.032;13.790;2023-04-28T12:29:42;10.65;;;3.95;;
76761;SDS011;65705;51.032;13.790;2023-04-28T12:32:10;8.77;;;3.95;;
76761;SDS011;65705;51.032;13.790;2023-04-28T12:34:37;9.90;;;3.83;;
76761;SDS011;65705;51.032;13.790;2023-04-28T12:37:04;8.02;;;4.43;;
76761;SDS011;65705;51.032;13.790;2023-04-28T12:39:32;11.82;;;4.65;;
76761;SDS011;65705;51.032;13.790;2023-04-28T12:42:00;13.00;;;4.90;;
76761;SDS011;65705;51.032;13.790;2023-04-28T12:44:37;10.95;;;5.45;;
76761;SDS011;65705;51.032;13.790;2023-04-28T12:47:03;11.85;;;5.18;;
76761;SDS011;65705;51.032;13.790;2023-04-28T12:49:33;12.98;;;5.63;;
76761;SDS011;65705;51.032;13.790;2023-04-28T12:52:00;12.93;;;6.63;;
76761;SDS011;65705;51.032;13.790;2023-04-28T12:54:26;11.90;;;6.25;;
76761;SDS011;65705;51.032;13.790;2023-04-28T12:56:52;12.38;;;5.93;;
76761;SDS011;65705;51.032;13.790;2023-04-28T12:59:21;13.80;;;6.72;;
76761;SDS011;65705;51.032;13.790;2023-04-28T13:01:47;12.57;;;6.35;;
76761;SDS011;65705;51.032;13.790;2023-04-28T13:04:15;15.85;;;5.88;;
76761;SDS011;65705;51.032;13.790;2023-04-28T13:06:41;12.95;;;6.72;;
76761;SDS011;65705;51.032;13.790;2023-04-28T13:09:09;12.68;;;6.68;;
76761;SDS011;65705;51.032;13.790;2023-04-28T13:11:39;14.00;;;6.82;;
76761;SDS011;65705;51.032;13.790;2023-04-28T13:14:06;12.88;;;6.53;;
76761;SDS011;65705;51.032;13.790;2023-04-28T13:16:32;14.63;;;7.22;;
76761;SDS011;65705;51.032;13.790;2023-04-28T13:18:59;11.93;;;6.00;;
76761;SDS011;65705;51.032;13.790;2023-04-28T13:21:26;12.27;;;6.57;;
76761;SDS011;65705;51.032;13.790;2023-04-28T13:23:53;11.82;;;6.57;;
76761;SDS011;65705;51.032;13.790;2023-04-28T13:26:19;17.33;;;6.82;;
76761;SDS011;65705;51.032;13.790;2023-04-28T13:28:48;12.20;;;6.85;;
76761;SDS011;65705;51.032;13.790;2023-04-28T13:31:14;14.05;;;6.55;;
76761;SDS011;65705;51.032;13.790;2023-04-28T13:33:40;14.07;;;6.20;;
76761;SDS011;65705;51.032;13.790;2023-04-28T13:36:06;13.45;;;7.10;;
76761;SDS011;65705;51.032;13.790;2023-04-28T13:38:33;11.45;;;6.43;;
76761;SDS011;65705;51.032;13.790;2023-04-28T13:40:58;14.75;;;7.07;;
76761;SDS011;65705;51.032;13.790;2023-04-28T13:43:25;12.15;;;6.55;;
76761;SDS011;65705;51.032;13.790;2023-04-28T13:45:51;13.40;;;6.82;;
76761;SDS011;65705;51.032;13.790;2023-04-28T13:48:17;13.00;;;6.85;;
76761;SDS011;65705;51.032;13.790;2023-04-28T13:50:44;12.13;;;7.35;;
76761;SDS011;65705;51.032;13.790;2023-04-28T13:53:10;14.57;;;6.80;;
76761;SDS011;65705;51.032;13.790;2023-04-28T13:55:36;13.55;;;7.22;;
76761;SDS011;65705;51.032;13.790;2023-04-28T13:58:02;14.48;;;6.38;;
76761;SDS011;65705;51.032;13.790;2023-04-28T14:00:32;13.32;;;6.43;;
76761;SDS011;65705;51.032;13.790;2023-04-28T14:02:59;11.63;;;6.75;;
76761;SDS011;65705;51.032;13.790;2023-04-28T14:05:26;18.77;;;8.02;;
76761;SDS011;65705;51.032;13.790;2023-04-28T14:07:52;16.77;;;7.03;;
76761;SDS011;65705;51.032;13.790;2023-04-28T14:10:19;12.73;;;6.80;;
76761;SDS011;65705;51.032;13.790;2023-04-28T14:12:45;13.82;;;7.10;;
76761;SDS011;65705;51.032;13.790;2023-04-28T14:15:11;10.15;;;5.93;;
76761;SDS011;65705;51.032;13.790;2023-04-28T14:17:36;15.82;;;6.30;;
76761;SDS011;65705;51.032;13.790;2023-04-28T14:20:02;9.77;;;6.18;;
76761;SDS011;65705;51.032;13.790;2023-04-28T14:22:28;18.52;;;6.40;;
76761;SDS011;65705;51.032;13.790;2023-04-28T14:24:54;13.98;;;6.25;;
76761;SDS011;65705;51.032;13.790;2023-04-28T14:27:20;10.98;;;5.95;;
76761;SDS011;65705;51.032;13.790;2023-04-28T14:29:47;17.70;;;6.80;;
76761;SDS011;65705;51.032;13.790;2023-04-28T14:32:14;16.65;;;6.40;;
76761;SDS011;65705;51.032;13.790;2023-04-28T14:34:41;13.57;;;6.10;;
76761;SDS011;65705;51.032;13.790;2023-04-28T14:37:07;11.23;;;6.05;;
76761;SDS011;65705;51.032;13.790;2023-04-28T14:39:33;12.23;;;5.72;;
76761;SDS011;65705;51.032;13.790;2023-04-28T14:41:59;15.38;;;6.30;;
76761;SDS011;65705;51.032;13.790;2023-04-28T14:44:26;12.25;;;6.18;;
76761;SDS011;65705;51.032;13.790;2023-04-28T14:46:51;15.80;;;6.00;;
76761;SDS011;65705;51.032;13.790;2023-04-28T14:49:18;12.80;;;6.22;;
76761;SDS011;65705;51.032;13.790;2023-04-28T14:51:43;11.32;;;5.78;;
76761;SDS011;65705;51.032;13.790;2023-04-28T14:54:10;12.40;;;5.93;;
76761;SDS011;65705;51.032;13.790;2023-04-28T14:56:36;13.90;;;5.85;;
76761;SDS011;65705;51.032;13.790;2023-04-28T14:59:02;10.98;;;5.75;;
76761;SDS011;65705;51.032;13.790;2023-04-28T15:01:28;14.20;;;7.57;;
76761;SDS011;65705;51.032;13.790;2023-04-28T15:03:54;14.75;;;6.88;;